Time;durP1;ratioP1;P1;durP2;ratioP2;P2;SDS_P1;SDS_P2;PMS_P1;PMS_P2;Temp;Humidity;BMP_temperature;BMP_pressure;BME280_temperature;BME280_humidity;BME280_pressure;Samples;Min_cycle;Max_cycle;Signal;HPM_P1;HPM_P2
2022/06/27 00:02:01;;;;;;;3.97;2.37;;;17.60;99.90;;;;;;5096360;28;20194;-44
2022/06/27 00:04:27;;;;;;;7.20;2.40;;;17.60;99.90;;;;;;5096274;28;20626;-42
2022/06/27 00:06:53;;;;;;;10.27;2.67;;;17.60;99.90;;;;;;5096269;28;20190;-42
2022/06/27 00:09:19;;;;;;;7.50;2.70;;;17.50;99.90;;;;;;5095174;28;20239;-42
2022/06/27 00:11:44;;;;;;;6.30;2.43;;;17.50;99.90;;;;;;5096186;28;20574;-41
2022/06/27 00:14:10;;;;;;;4.83;2.43;;;17.50;99.90;;;;;;5095876;28;20197;-43
2022/06/27 00:16:35;;;;;;;5.57;2.70;;;17.40;99.90;;;;;;5095777;28;20179;-45
2022/06/27 00:19:01;;;;;;;7.20;2.27;;;17.40;99.90;;;;;;5095692;28;20229;-44
2022/06/27 00:21:27;;;;;;;6.23;2.80;;;17.40;99.90;;;;;;5095950;28;20179;-44
2022/06/27 00:23:52;;;;;;;5.07;2.33;;;17.40;99.90;;;;;;5095715;28;20183;-45
2022/06/27 00:26:18;;;;;;;4.13;2.43;;;17.30;99.90;;;;;;5095562;28;20175;-43
2022/06/27 00:28:43;;;;;;;4.07;2.00;;;17.30;99.90;;;;;;5095499;28;20214;-43
2022/06/27 00:31:09;;;;;;;4.43;2.50;;;17.30;99.90;;;;;;5095621;28;20228;-41
2022/06/27 00:33:34;;;;;;;6.20;2.80;;;17.20;99.90;;;;;;5095727;28;20189;-42
2022/06/27 00:36:00;;;;;;;5.77;3.27;;;17.20;99.90;;;;;;5095734;28;20643;-43
2022/06/27 00:38:26;;;;;;;6.27;2.77;;;17.10;99.90;;;;;;5098948;28;20711;-45
2022/06/27 00:40:52;;;;;;;5.40;3.07;;;17.10;99.90;;;;;;5095609;28;20186;-43
2022/06/27 00:43:17;;;;;;;3.30;2.87;;;17.10;99.90;;;;;;5095501;28;20233;-43
2022/06/27 00:45:43;;;;;;;6.60;3.00;;;17.10;99.90;;;;;;5095456;28;20179;-42
2022/06/27 00:48:09;;;;;;;4.83;2.77;;;17.10;99.90;;;;;;5095290;28;20283;-42
2022/06/27 00:50:34;;;;;;;4.77;2.67;;;17.00;99.90;;;;;;5095412;28;20182;-43
2022/06/27 00:53:00;;;;;;;3.47;2.90;;;17.00;99.90;;;;;;5095072;28;20179;-43
2022/06/27 00:55:26;;;;;;;10.47;3.57;;;17.00;99.90;;;;;;5095315;28;20183;-43
2022/06/27 00:57:53;;;;;;;6.63;2.80;;;17.10;99.90;;;;;;5095203;28;20192;-43
2022/06/27 01:00:19;;;;;;;6.13;3.00;;;17.00;99.90;;;;;;5094926;28;20236;-44
2022/06/27 01:02:44;;;;;;;8.23;3.40;;;17.00;99.90;;;;;;5095401;28;20237;-42
2022/06/27 01:05:13;;;;;;;10.30;3.20;;;17.00;99.90;;;;;;5094801;28;20182;-42
2022/06/27 01:07:39;;;;;;;6.30;3.27;;;17.00;99.90;;;;;;5094806;28;20178;-44
2022/06/27 01:10:05;;;;;;;8.70;3.30;;;17.00;99.90;;;;;;5094927;28;20222;-43
2022/06/27 01:12:32;;;;;;;3.80;3.23;;;17.00;99.90;;;;;;5095465;28;20524;-43
2022/06/27 01:14:58;;;;;;;8.23;3.13;;;17.00;99.90;;;;;;5094881;28;20273;-43
2022/06/27 01:17:24;;;;;;;5.10;3.90;;;17.00;99.90;;;;;;5093471;28;20249;-42
2022/06/27 01:19:50;;;;;;;4.30;3.20;;;17.10;99.90;;;;;;5094484;28;20230;-42
2022/06/27 01:22:17;;;;;;;6.07;2.97;;;17.00;99.90;;;;;;5093846;28;20283;-43
2022/06/27 01:24:42;;;;;;;5.70;2.97;;;17.00;99.90;;;;;;5094487;28;20261;-43
2022/06/27 01:27:08;;;;;;;10.90;3.77;;;17.00;99.90;;;;;;5094736;28;20274;-42
2022/06/27 01:29:34;;;;;;;6.60;3.17;;;17.00;99.90;;;;;;5094277;28;20215;-43
2022/06/27 01:32:00;;;;;;;5.37;3.20;;;17.00;99.90;;;;;;5094337;28;20175;-43
2022/06/27 01:34:26;;;;;;;11.57;3.93;;;17.00;99.90;;;;;;5094360;28;20638;-43
2022/06/27 01:36:51;;;;;;;5.03;3.33;;;17.00;99.90;;;;;;5094110;28;20179;-43
2022/06/27 01:39:22;;;;;;;4.67;3.70;;;17.00;99.90;;;;;;5094387;28;20210;-43
2022/06/27 01:41:50;;;;;;;7.63;3.87;;;17.00;99.90;;;;;;5094231;28;20296;-43
2022/06/27 01:44:17;;;;;;;5.83;3.80;;;17.00;99.90;;;;;;5094138;28;20190;-44
2022/06/27 01:46:47;;;;;;;6.77;3.83;;;17.00;99.90;;;;;;5094613;28;20258;-44
2022/06/27 01:49:15;;;;;;;6.47;3.90;;;17.00;99.90;;;;;;5094029;28;20256;-43
2022/06/27 01:51:43;;;;;;;8.20;4.20;;;17.00;99.90;;;;;;5093984;28;20175;-43
2022/06/27 01:54:09;;;;;;;5.77;4.13;;;17.00;99.90;;;;;;5093974;28;20210;-42
2022/06/27 01:56:35;;;;;;;7.27;4.27;;;17.00;99.90;;;;;;5093783;28;20186;-44
2022/06/27 01:59:01;;;;;;;6.37;4.97;;;17.00;99.90;;;;;;5093760;28;20274;-42
2022/06/27 02:01:28;;;;;;;6.53;4.67;;;17.10;99.90;;;;;;5094092;28;20183;-42
2022/06/27 02:03:55;;;;;;;8.77;5.23;;;17.10;99.90;;;;;;5093753;28;20220;-44
2022/06/27 02:06:23;;;;;;;8.37;5.30;;;17.10;99.90;;;;;;5093919;28;20178;-42
2022/06/27 02:08:51;;;;;;;7.10;4.90;;;17.10;99.90;;;;;;5092465;28;20698;-44
2022/06/27 02:11:19;;;;;;;8.43;5.50;;;17.10;99.90;;;;;;5093692;28;20175;-44
2022/06/27 02:13:44;;;;;;;10.10;5.10;;;17.10;99.90;;;;;;5093630;28;20255;-43
2022/06/27 02:16:13;;;;;;;6.40;4.70;;;17.10;99.90;;;;;;5093890;28;20700;-45
2022/06/27 02:18:39;;;;;;;7.70;4.73;;;17.10;99.90;;;;;;5093820;28;20202;-44
2022/06/27 02:21:06;;;;;;;6.47;5.00;;;17.10;99.90;;;;;;5093526;28;20258;-44
2022/06/27 02:23:32;;;;;;;6.73;4.80;;;17.10;99.90;;;;;;5093790;28;20642;-42
2022/06/27 02:25:59;;;;;;;6.87;5.30;;;17.10;99.90;;;;;;5093774;28;20189;-44
2022/06/27 02:28:28;;;;;;;10.03;6.03;;;17.10;99.90;;;;;;5093352;28;20662;-44
2022/06/27 02:30:54;;;;;;;7.40;5.60;;;17.20;99.90;;;;;;5093719;28;20179;-44
2022/06/27 02:33:19;;;;;;;9.43;6.20;;;17.20;99.90;;;;;;5098095;28;20346;-43
2022/06/27 02:35:48;;;;;;;9.87;5.93;;;17.10;99.90;;;;;;5100458;28;20179;-43
2022/06/27 02:38:16;;;;;;;8.23;6.17;;;17.20;99.90;;;;;;5100181;28;20190;-44
2022/06/27 02:40:44;;;;;;;8.13;6.30;;;17.20;99.90;;;;;;5100478;28;20182;-44
2022/06/27 02:43:13;;;;;;;9.97;6.60;;;17.20;99.90;;;;;;5100093;28;20187;-41
2022/06/27 02:45:40;;;;;;;9.37;6.57;;;17.20;99.90;;;;;;5100597;28;20185;-41
2022/06/27 02:48:07;;;;;;;13.23;7.33;;;17.20;99.90;;;;;;5099995;28;20202;-40
2022/06/27 02:50:34;;;;;;;10.60;6.90;;;17.20;99.90;;;;;;5099953;28;20650;-39
2022/06/27 02:53:05;;;;;;;9.47;6.33;;;17.20;99.90;;;;;;5099983;28;20182;-40
2022/06/27 02:55:43;;;;;;;9.20;6.70;;;17.20;99.90;;;;;;5100330;28;20220;-39
2022/06/27 02:58:21;;;;;;;8.27;7.10;;;17.20;99.90;;;;;;5099861;28;20175;-39
2022/06/27 03:00:48;;;;;;;6.63;5.73;;;17.20;99.90;;;;;;5098671;28;20257;-39
2022/06/27 03:03:16;;;;;;;7.87;6.20;;;17.20;99.90;;;;;;5099832;28;20194;-41
2022/06/27 03:06:03;;;;;;;9.23;6.50;;;17.20;99.90;;;;;;5099900;28;20701;-41
2022/06/27 03:08:43;;;;;;;7.23;6.07;;;17.10;99.90;;;;;;5099975;28;20214;-39
2022/06/27 03:11:16;;;;;;;8.97;6.03;;;17.10;99.90;;;;;;5099856;28;20202;-41
2022/06/27 03:13:43;;;;;;;9.43;6.13;;;17.10;99.90;;;;;;5099749;28;20213;-41
2022/06/27 03:16:10;;;;;;;11.07;6.00;;;17.10;99.90;;;;;;5098609;28;20178;-40
2022/06/27 03:18:35;;;;;;;9.70;5.97;;;17.00;99.90;;;;;;5099789;28;20540;-40
2022/06/27 03:21:01;;;;;;;9.83;6.20;;;17.00;99.90;;;;;;5100313;28;20220;-39
2022/06/27 03:23:27;;;;;;;9.53;5.73;;;17.00;99.90;;;;;;5100051;28;20605;-40
2022/06/27 03:25:53;;;;;;;8.87;5.77;;;17.00;99.90;;;;;;5100010;28;20236;-40
2022/06/27 03:28:19;;;;;;;8.43;6.00;;;17.00;99.90;;;;;;5099596;28;20627;-40
2022/06/27 03:30:45;;;;;;;10.47;6.53;;;17.00;99.90;;;;;;5099690;28;20225;-40
2022/06/27 03:33:11;;;;;;;7.03;5.33;;;17.00;99.90;;;;;;5099705;28;20662;-40
2022/06/27 03:35:37;;;;;;;7.67;5.47;;;16.90;99.90;;;;;;5099704;28;20591;-41
2022/06/27 03:38:03;;;;;;;6.70;4.40;;;17.00;99.90;;;;;;5099535;28;20195;-40
2022/06/27 03:40:28;;;;;;;8.33;5.10;;;17.00;99.90;;;;;;5099814;28;20198;-40
2022/06/27 03:42:54;;;;;;;6.47;5.13;;;16.90;99.90;;;;;;5099610;28;20179;-40
2022/06/27 03:45:19;;;;;;;5.70;4.43;;;17.00;99.90;;;;;;5095670;28;20531;-41
2022/06/27 03:47:56;;;;;;;7.23;4.77;;;17.00;99.90;;;;;;5096547;28;20190;-41
2022/06/27 03:50:24;;;;;;;6.83;5.13;;;17.00;99.90;;;;;;5094981;28;20597;-40
2022/06/27 03:52:50;;;;;;;6.80;4.77;;;17.00;99.90;;;;;;5096602;28;20221;-40
2022/06/27 03:55:16;;;;;;;5.50;4.87;;;17.00;99.90;;;;;;5096521;28;20170;-41
2022/06/27 03:57:56;;;;;;;5.30;4.60;;;17.00;99.90;;;;;;5096746;28;20190;-40
2022/06/27 04:00:24;;;;;;;7.73;5.23;;;17.00;99.90;;;;;;5096820;28;20202;-41
2022/06/27 04:02:51;;;;;;;7.87;4.80;;;17.00;99.90;;;;;;5096577;28;20190;-40
2022/06/27 04:05:17;;;;;;;6.27;5.03;;;17.00;99.90;;;;;;5096534;28;20175;-40
2022/06/27 04:07:42;;;;;;;6.80;4.50;;;17.00;99.90;;;;;;5096049;28;20539;-39
2022/06/27 04:10:10;;;;;;;9.30;4.93;;;17.00;99.90;;;;;;5095929;28;20749;-41
2022/06/27 04:12:36;;;;;;;6.07;4.63;;;17.00;99.90;;;;;;5098450;28;20209;-44
2022/06/27 04:15:03;;;;;;;9.67;5.50;;;17.00;99.90;;;;;;5099519;28;20599;-45
2022/06/27 04:17:29;;;;;;;6.43;5.10;;;17.00;99.90;;;;;;5099587;28;20181;-44
2022/06/27 04:19:55;;;;;;;10.23;4.93;;;17.00;99.90;;;;;;5099543;28;20199;-44
2022/06/27 04:22:20;;;;;;;5.70;5.13;;;17.00;99.90;;;;;;5099752;28;20182;-43
2022/06/27 04:24:46;;;;;;;6.50;5.00;;;17.00;99.90;;;;;;5099598;28;20244;-45
2022/06/27 04:27:13;;;;;;;6.50;5.27;;;17.00;99.90;;;;;;5099505;28;20179;-44
2022/06/27 04:29:39;;;;;;;7.33;5.63;;;17.00;99.90;;;;;;5099267;28;20210;-42
2022/06/27 04:32:07;;;;;;;8.13;5.73;;;17.10;99.90;;;;;;5099489;28;20183;-44
2022/06/27 04:34:33;;;;;;;8.30;6.50;;;17.00;99.90;;;;;;5099717;28;20190;-45
2022/06/27 04:36:59;;;;;;;8.50;5.93;;;17.10;99.90;;;;;;5099643;28;20206;-44
2022/06/27 04:39:25;;;;;;;9.03;5.67;;;17.10;99.90;;;;;;5099388;28;20682;-44
2022/06/27 04:41:51;;;;;;;8.23;5.83;;;17.10;99.90;;;;;;5100171;28;20258;-43
2022/06/27 04:44:18;;;;;;;6.63;5.27;;;17.10;99.90;;;;;;5100618;28;20183;-43
2022/06/27 04:46:47;;;;;;;6.73;5.33;;;17.10;99.90;;;;;;5099244;28;20202;-43
2022/06/27 04:49:14;;;;;;;10.53;6.10;;;17.20;99.90;;;;;;5100211;28;20720;-42
2022/06/27 04:51:41;;;;;;;7.13;5.20;;;17.20;99.90;;;;;;5099215;28;20179;-41
2022/06/27 04:54:08;;;;;;;10.47;6.47;;;17.20;99.90;;;;;;5098787;28;20658;-44
2022/06/27 04:56:37;;;;;;;8.93;6.03;;;17.30;99.90;;;;;;5098604;28;20294;-43
2022/06/27 04:59:03;;;;;;;8.07;6.20;;;17.40;99.90;;;;;;5098000;28;20203;-41
2022/06/27 05:01:28;;;;;;;10.07;6.23;;;17.50;99.90;;;;;;5095004;28;20555;-41
2022/06/27 05:03:54;;;;;;;9.33;6.63;;;17.50;99.90;;;;;;5095133;28;20183;-40
2022/06/27 05:06:20;;;;;;;8.93;6.80;;;17.60;99.90;;;;;;5094868;28;20182;-40
2022/06/27 05:08:45;;;;;;;14.10;7.40;;;17.70;99.90;;;;;;5094029;28;20222;-41
2022/06/27 05:11:11;;;;;;;9.17;6.90;;;17.70;99.90;;;;;;5095479;28;20182;-40
2022/06/27 05:13:37;;;;;;;8.30;6.40;;;17.80;99.90;;;;;;5094783;28;20210;-41
2022/06/27 05:16:03;;;;;;;9.33;7.20;;;17.80;99.90;;;;;;5095128;28;20183;-39
2022/06/27 05:18:29;;;;;;;9.93;7.23;;;17.90;99.90;;;;;;5095185;28;20670;-40
2022/06/27 05:20:55;;;;;;;9.77;6.73;;;17.90;99.90;;;;;;5094613;28;20296;-40
2022/06/27 05:23:21;;;;;;;10.10;8.23;;;18.00;99.90;;;;;;5095075;28;20220;-39
2022/06/27 05:25:46;;;;;;;9.70;7.43;;;18.00;99.90;;;;;;5095453;28;20179;-41
2022/06/27 05:28:12;;;;;;;8.33;7.40;;;18.00;99.90;;;;;;5094262;28;20698;-41
2022/06/27 05:30:38;;;;;;;7.83;6.47;;;18.00;99.90;;;;;;5094756;28;20175;-39
2022/06/27 05:33:03;;;;;;;10.70;6.97;;;18.00;99.90;;;;;;5093309;28;20266;-39
2022/06/27 05:35:29;;;;;;;11.10;7.00;;;18.00;99.90;;;;;;5094594;28;20183;-39
2022/06/27 05:37:55;;;;;;;9.30;7.00;;;18.10;99.90;;;;;;5094405;28;20650;-40
2022/06/27 05:40:21;;;;;;;8.70;6.67;;;18.10;99.90;;;;;;5094180;28;20287;-40
2022/06/27 05:42:48;;;;;;;10.00;7.07;;;18.10;99.90;;;;;;5094175;28;20202;-40
2022/06/27 05:45:15;;;;;;;8.43;6.33;;;18.10;99.90;;;;;;5094432;28;20179;-38
2022/06/27 05:47:42;;;;;;;11.43;6.23;;;18.10;99.90;;;;;;5093986;28;20198;-40
2022/06/27 05:50:08;;;;;;;10.97;7.33;;;18.10;99.90;;;;;;5094235;28;20195;-39
2022/06/27 05:52:34;;;;;;;10.53;7.17;;;18.10;99.90;;;;;;5094211;28;20262;-39
2022/06/27 05:55:00;;;;;;;10.10;7.20;;;18.00;99.90;;;;;;5094203;28;20573;-40
2022/06/27 05:57:27;;;;;;;8.63;6.57;;;18.00;99.90;;;;;;5094155;28;20258;-40
2022/06/27 05:59:55;;;;;;;8.50;6.87;;;18.00;99.90;;;;;;5093801;28;20194;-40
2022/06/27 06:02:25;;;;;;;8.70;6.80;;;18.10;99.90;;;;;;5094099;28;20235;-39
2022/06/27 06:04:51;;;;;;;10.17;7.47;;;18.10;99.90;;;;;;5093804;28;20666;-40
2022/06/27 06:07:17;;;;;;;11.47;7.00;;;18.10;99.90;;;;;;5093563;28;20232;-40
2022/06/27 06:09:43;;;;;;;7.63;6.80;;;18.20;99.90;;;;;;5093560;28;20702;-42
2022/06/27 06:12:12;;;;;;;10.20;7.00;;;18.20;99.90;;;;;;5093727;28;20256;-40
2022/06/27 06:14:38;;;;;;;10.20;6.67;;;18.20;99.90;;;;;;5093617;28;20181;-39
2022/06/27 06:17:04;;;;;;;8.00;5.93;;;18.30;99.90;;;;;;5094446;28;20179;-40
2022/06/27 06:19:31;;;;;;;11.70;6.50;;;18.30;99.90;;;;;;5093867;28;20686;-42
2022/06/27 06:21:57;;;;;;;12.93;6.30;;;18.40;99.90;;;;;;5093753;28;20546;-39
2022/06/27 06:24:24;;;;;;;6.70;5.87;;;18.60;99.90;;;;;;5093880;28;20206;-40
2022/06/27 06:26:52;;;;;;;9.17;6.50;;;18.60;99.90;;;;;;5093500;28;20587;-41
2022/06/27 06:29:18;;;;;;;7.70;5.97;;;18.70;99.90;;;;;;5093640;28;20238;-39
2022/06/27 06:31:45;;;;;;;10.50;6.83;;;18.70;99.90;;;;;;5094053;28;20187;-38
2022/06/27 06:34:15;;;;;;;10.27;6.13;;;18.80;99.90;;;;;;5094197;28;20183;-40
2022/06/27 06:36:42;;;;;;;7.80;6.20;;;18.80;99.90;;;;;;5093425;28;20183;-39
2022/06/27 06:39:08;;;;;;;7.40;6.50;;;18.80;99.90;;;;;;5093188;28;20305;-42
2022/06/27 06:41:35;;;;;;;12.30;6.97;;;18.80;99.90;;;;;;5093410;28;20186;-41
2022/06/27 06:44:02;;;;;;;10.10;6.97;;;18.80;99.90;;;;;;5094485;28;20525;-39
2022/06/27 06:46:28;;;;;;;11.60;6.97;;;18.90;99.90;;;;;;5093620;28;20194;-39
2022/06/27 06:48:57;;;;;;;8.97;6.57;;;19.00;99.90;;;;;;5093567;28;20210;-40
2022/06/27 06:51:24;;;;;;;9.47;6.70;;;19.00;99.90;;;;;;5093520;28;20261;-38
2022/06/27 06:53:49;;;;;;;8.87;7.07;;;19.10;99.90;;;;;;5093369;28;20600;-40
2022/06/27 06:56:15;;;;;;;8.57;6.63;;;19.10;99.90;;;;;;5093532;28;20182;-39
2022/06/27 06:58:41;;;;;;;9.73;6.97;;;19.20;99.90;;;;;;5093411;28;20344;-41
2022/06/27 07:01:07;;;;;;;10.67;7.13;;;19.20;99.90;;;;;;5093166;28;20270;-40
2022/06/27 07:03:33;;;;;;;10.07;6.83;;;19.30;99.90;;;;;;5093760;28;20183;-39
2022/06/27 07:05:59;;;;;;;9.00;7.23;;;19.30;99.90;;;;;;5093186;28;20179;-41
2022/06/27 07:08:24;;;;;;;8.87;7.30;;;19.30;99.90;;;;;;5093253;28;20263;-42
2022/06/27 07:10:51;;;;;;;10.53;7.70;;;19.40;99.90;;;;;;5093109;28;20175;-40
2022/06/27 07:13:19;;;;;;;12.97;7.23;;;19.30;99.90;;;;;;5093362;28;20190;-38
2022/06/27 07:15:45;;;;;;;9.00;6.83;;;19.30;99.90;;;;;;5093662;28;20229;-41
2022/06/27 07:18:12;;;;;;;10.10;7.37;;;19.40;99.90;;;;;;5093238;28;20248;-40
2022/06/27 07:20:39;;;;;;;12.60;7.93;;;19.40;99.90;;;;;;5096158;28;20277;-40
2022/06/27 07:23:06;;;;;;;12.23;6.87;;;19.50;99.90;;;;;;5097099;28;20187;-41
2022/06/27 07:25:34;;;;;;;10.70;7.30;;;19.50;99.90;;;;;;5123106;22;20253;-40
2022/06/27 07:28:00;;;;;;;10.00;6.70;;;19.60;99.90;;;;;;5099724;28;20171;-41
2022/06/27 07:30:26;;;;;;;14.63;7.53;;;19.70;99.90;;;;;;5098845;28;20201;-39
2022/06/27 07:32:52;;;;;;;11.53;7.07;;;19.70;99.90;;;;;;5117371;28;20189;-39
2022/06/27 07:35:18;;;;;;;10.13;7.27;;;19.70;99.90;;;;;;5117075;28;20170;-39
2022/06/27 07:37:48;;;;;;;7.40;6.63;;;19.80;99.90;;;;;;5098760;28;20267;-38
2022/06/27 07:40:18;;;;;;;8.40;6.80;;;19.80;99.90;;;;;;5116927;28;20193;-40
2022/06/27 07:42:45;;;;;;;8.93;6.60;;;19.80;99.90;;;;;;5117202;28;20181;-40
2022/06/27 07:45:14;;;;;;;11.47;7.47;;;19.90;99.90;;;;;;5116867;28;20541;-38
2022/06/27 07:47:40;;;;;;;9.00;7.93;;;20.00;99.90;;;;;;5117067;28;20174;-38
2022/06/27 07:50:07;;;;;;;10.77;7.33;;;20.00;99.90;;;;;;5116682;28;20217;-40
2022/06/27 07:53:11;;;;;;;10.00;7.27;;;20.10;99.90;;;;;;5116983;28;20171;-42
2022/06/27 07:55:19;;;;;;;10.30;7.23;;;20.00;99.90;;;;;;5116599;28;20193;-40
2022/06/27 07:57:47;;;;;;;11.33;6.83;;;20.00;99.90;;;;;;5116957;28;20676;-41
2022/06/27 08:00:14;;;;;;;9.07;6.97;;;20.00;99.90;;;;;;5116559;28;20277;-41
2022/06/27 08:02:41;;;;;;;10.27;7.40;;;19.90;99.90;;;;;;5116602;28;20220;-41
2022/06/27 08:05:07;;;;;;;11.70;8.17;;;19.90;99.90;;;;;;5098277;28;20174;-39
2022/06/27 08:07:33;;;;;;;11.70;7.60;;;19.90;99.90;;;;;;5117138;28;20174;-41
2022/06/27 08:09:59;;;;;;;13.27;7.43;;;19.80;99.90;;;;;;5099241;28;20210;-41
2022/06/27 08:12:25;;;;;;;10.13;7.90;;;19.90;99.90;;;;;;5116829;28;20181;-40
2022/06/27 08:14:51;;;;;;;14.13;8.27;;;20.00;99.90;;;;;;5098344;28;20185;-40
2022/06/27 08:17:18;;;;;;;11.70;7.63;;;20.00;99.90;;;;;;5116509;28;20182;-39
2022/06/27 08:19:44;;;;;;;9.57;7.90;;;20.10;99.90;;;;;;5116170;28;20197;-40
2022/06/27 08:22:11;;;;;;;9.80;7.67;;;20.10;99.90;;;;;;5097878;28;20182;-40
2022/06/27 08:24:38;;;;;;;9.63;7.97;;;20.20;99.90;;;;;;5116048;28;20178;-40
2022/06/27 08:27:04;;;;;;;9.00;7.33;;;20.20;99.90;;;;;;5116218;28;20171;-41
2022/06/27 08:29:32;;;;;;;11.43;8.30;;;20.20;99.90;;;;;;5115875;28;20554;-41
2022/06/27 08:31:58;;;;;;;11.83;7.97;;;20.20;99.90;;;;;;5115551;28;20163;-41
2022/06/27 08:34:23;;;;;;;12.77;8.43;;;20.20;99.90;;;;;;5097932;28;20171;-42
2022/06/27 08:36:50;;;;;;;14.27;8.57;;;20.30;99.90;;;;;;5116114;28;20181;-40
2022/06/27 08:39:18;;;;;;;14.67;8.23;;;20.30;99.90;;;;;;5115706;28;20194;-40
2022/06/27 08:41:48;;;;;;;11.97;7.53;;;20.40;99.90;;;;;;5116028;28;20170;-40
2022/06/27 08:44:14;;;;;;;16.30;8.53;;;20.30;99.90;;;;;;5097435;28;20181;-40
2022/06/27 08:46:41;;;;;;;10.63;7.90;;;20.30;99.90;;;;;;5097422;28;20182;-42
2022/06/27 08:49:08;;;;;;;9.13;7.87;;;20.40;99.90;;;;;;5097282;28;20217;-42
2022/06/27 08:51:34;;;;;;;13.00;8.10;;;20.50;99.90;;;;;;5115921;28;20210;-40
2022/06/27 08:54:00;;;;;;;12.23;8.63;;;20.50;99.90;;;;;;5097711;28;20184;-41
2022/06/27 08:56:28;;;;;;;9.57;7.60;;;20.40;99.90;;;;;;5080591;28;20227;-42
2022/06/27 08:58:58;;;;;;;10.13;7.77;;;20.50;99.90;;;;;;5097541;28;20251;-39
2022/06/27 09:01:32;;;;;;;9.30;8.23;;;20.50;99.90;;;;;;5097487;28;20187;-39
2022/06/27 09:04:03;;;;;;;10.27;7.53;;;20.60;99.90;;;;;;5115551;28;20219;-43
2022/06/27 09:06:44;;;;;;;13.13;7.57;;;20.70;99.90;;;;;;5115937;28;20167;-44
2022/06/27 09:09:13;;;;;;;10.47;7.40;;;20.80;99.90;;;;;;5117385;28;20274;-42
2022/06/27 09:11:42;;;;;;;9.80;6.93;;;20.90;99.90;;;;;;5097870;28;20210;-44
2022/06/27 09:14:37;;;;;;;11.20;7.80;;;20.90;99.90;;;;;;5115060;28;20315;-45
2022/06/27 09:17:09;;;;;;;11.90;7.60;;;20.90;99.90;;;;;;5096935;28;20252;-42
2022/06/27 09:19:56;;;;;;;13.00;8.17;;;20.90;99.90;;;;;;5098051;28;20251;-40
2022/06/27 09:22:25;;;;;;;11.00;7.80;;;20.90;99.90;;;;;;5115124;28;20197;-44
2022/06/27 09:25:04;;;;;;;11.23;7.43;;;20.90;99.90;;;;;;5114958;28;20186;-42
2022/06/27 09:27:46;;;;;;;13.17;8.33;;;20.90;99.90;;;;;;5115296;28;20621;-41
2022/06/27 09:30:17;;;;;;;12.23;8.17;;;20.90;99.90;;;;;;5115311;28;20212;-44
2022/06/27 09:32:44;;;;;;;14.43;7.97;;;20.90;99.90;;;;;;5114872;28;20192;-43
2022/06/27 09:35:33;;;;;;;10.97;7.67;;;20.80;99.90;;;;;;5115069;28;20178;-44
2022/06/27 09:38:02;;;;;;;11.43;7.10;;;20.90;99.90;;;;;;5107156;28;20265;-43
2022/06/27 09:40:30;;;;;;;9.63;7.30;;;20.90;99.90;;;;;;5096405;28;20201;-43
2022/06/27 09:42:57;;;;;;;10.80;7.37;;;20.80;99.90;;;;;;5113945;28;20185;-44
2022/06/27 09:45:24;;;;;;;10.27;6.63;;;20.80;99.90;;;;;;5115443;28;20175;-43
2022/06/27 09:47:55;;;;;;;9.20;7.53;;;20.90;99.90;;;;;;5114503;28;20162;-44
2022/06/27 09:50:21;;;;;;;11.10;7.40;;;20.90;99.90;;;;;;5114822;28;20198;-43
2022/06/27 09:52:48;;;;;;;11.40;8.07;;;20.90;99.90;;;;;;5114494;28;20649;-41
2022/06/27 09:55:14;;;;;;;15.23;7.90;;;20.90;99.90;;;;;;5114428;28;20174;-42
2022/06/27 09:57:41;;;;;;;12.27;7.87;;;20.90;99.90;;;;;;5114670;28;20546;-42
2022/06/27 10:00:08;;;;;;;11.67;7.20;;;21.00;99.90;;;;;;5114338;28;20202;-43
2022/06/27 10:02:34;;;;;;;10.77;8.37;;;21.10;99.90;;;;;;5097035;28;20182;-44
2022/06/27 10:05:00;;;;;;;9.27;8.37;;;21.20;99.90;;;;;;5114609;28;20169;-45
2022/06/27 10:07:27;;;;;;;12.70;7.83;;;21.20;99.90;;;;;;5114229;28;20178;-44
2022/06/27 10:09:53;;;;;;;11.60;8.67;;;21.20;99.90;;;;;;5114309;28;20581;-44
2022/06/27 10:12:27;;;;;;;15.73;7.87;;;21.30;99.90;;;;;;5114274;28;20269;-43
2022/06/27 10:15:11;;;;;;;12.40;8.03;;;21.40;99.90;;;;;;5114247;28;20186;-43
2022/06/27 10:17:43;;;;;;;10.47;7.50;;;21.50;99.90;;;;;;5114342;28;20181;-42
2022/06/27 10:20:32;;;;;;;9.83;7.50;;;21.40;99.90;;;;;;5114041;28;20205;-44
2022/06/27 10:23:03;;;;;;;10.67;6.47;;;21.50;99.90;;;;;;5114321;28;20166;-44
2022/06/27 10:25:31;;;;;;;9.23;7.57;;;21.60;99.90;;;;;;5113777;28;20335;-43
2022/06/27 10:28:12;;;;;;;9.53;7.10;;;21.70;99.90;;;;;;5114081;28;20181;-43
2022/06/27 10:30:39;;;;;;;11.20;7.30;;;21.90;99.90;;;;;;5113920;28;20534;-45
2022/06/27 10:33:23;;;;;;;9.57;7.30;;;22.10;99.90;;;;;;5113928;28;20226;-42
2022/06/27 10:35:57;;;;;;;9.23;7.17;;;22.20;99.90;;;;;;5095717;28;20658;-42
2022/06/27 10:38:30;;;;;;;10.57;7.07;;;22.40;99.90;;;;;;5114008;28;20581;-44
2022/06/27 10:40:58;;;;;;;10.13;6.90;;;22.50;99.90;;;;;;5114084;28;20621;-43
2022/06/27 10:43:35;;;;;;;10.30;6.97;;;22.60;99.90;;;;;;5113907;28;20170;-44
2022/06/27 10:46:21;;;;;;;9.73;7.77;;;22.70;99.90;;;;;;5114048;28;20189;-43
2022/06/27 10:48:52;;;;;;;8.53;6.70;;;22.70;99.90;;;;;;5113505;28;20209;-43
2022/06/27 10:51:18;;;;;;;8.33;6.57;;;22.70;99.90;;;;;;5114117;28;20155;-42
2022/06/27 10:53:47;;;;;;;7.80;6.30;;;22.80;99.90;;;;;;5115678;28;20184;-42
2022/06/27 10:56:31;;;;;;;9.20;6.80;;;22.90;99.90;;;;;;5117882;28;20238;-44
2022/06/27 10:58:58;;;;;;;11.93;6.03;;;22.90;99.90;;;;;;5117712;28;20262;-43
2022/06/27 11:01:27;;;;;;;7.17;5.40;;;23.00;99.90;;;;;;5117803;28;20193;-42
2022/06/27 11:03:53;;;;;;;12.33;5.40;;;23.20;99.90;;;;;;5099497;28;20178;-44
2022/06/27 11:06:19;;;;;;;6.70;5.23;;;23.30;99.90;;;;;;5117688;28;20182;-44
2022/06/27 11:08:48;;;;;;;8.57;5.67;;;23.50;99.90;;;;;;5117544;28;20615;-44
2022/06/27 11:11:21;;;;;;;7.10;5.33;;;23.80;99.90;;;;;;5083333;28;20174;-44
2022/06/27 11:13:55;;;;;;;7.33;5.23;;;24.00;99.90;;;;;;5117671;28;20163;-44
2022/06/27 11:16:23;;;;;;;8.87;5.77;;;24.20;99.90;;;;;;5099157;28;20179;-43
2022/06/27 11:18:55;;;;;;;9.00;5.40;;;24.40;99.90;;;;;;5117420;28;20264;-43
2022/06/27 11:21:23;;;;;;;7.60;5.13;;;24.40;99.90;;;;;;5099175;28;20210;-44
2022/06/27 11:23:50;;;;;;;7.20;5.03;;;24.40;99.90;;;;;;5117390;28;20276;-42
2022/06/27 11:26:17;;;;;;;8.87;5.20;;;24.50;99.90;;;;;;5117444;28;20198;-42
2022/06/27 11:34:12;;;;;;;4.67;3.60;;;24.80;99.90;;;;;;5117261;28;20165;-45
2022/06/27 11:36:39;;;;;;;5.83;3.80;;;24.90;99.90;;;;;;5117209;28;20174;-42
2022/06/27 11:39:05;;;;;;;4.77;2.90;;;24.80;99.90;;;;;;5116980;28;20213;-42
2022/06/27 11:41:31;;;;;;;5.93;2.83;;;24.80;99.90;;;;;;5117359;28;20186;-43
2022/06/27 11:44:07;;;;;;;4.90;2.93;;;24.80;99.90;;;;;;5117006;28;20181;-41
2022/06/27 11:46:45;;;;;;;3.23;2.53;;;24.80;99.90;;;;;;5099230;28;20166;-41
2022/06/27 11:49:34;;;;;;;5.57;2.43;;;24.70;99.90;;;;;;5117153;28;20213;-42
2022/06/27 11:52:03;;;;;;;4.50;3.43;;;24.70;99.90;;;;;;5117318;28;20158;-43
2022/06/27 11:54:43;;;;;;;4.80;3.40;;;24.60;99.90;;;;;;5098899;28;20182;-42
2022/06/27 11:57:29;;;;;;;6.90;3.53;;;24.40;99.90;;;;;;5117060;28;20186;-43
2022/06/27 11:59:56;;;;;;;7.43;4.00;;;24.40;99.90;;;;;;5116726;28;20733;-43
2022/06/27 12:02:28;;;;;;;4.30;3.50;;;24.40;99.90;;;;;;5098540;28;20548;-41
2022/06/27 12:05:11;;;;;;;6.93;3.93;;;24.50;99.90;;;;;;5115956;28;20174;-43
2022/06/27 12:08:01;;;;;;;6.20;3.97;;;24.70;99.90;;;;;;5116539;28;20687;-42
2022/06/27 12:10:40;;;;;;;7.07;4.73;;;24.80;99.90;;;;;;5116800;28;20668;-41
2022/06/27 12:13:09;;;;;;;6.60;4.73;;;24.80;99.90;;;;;;5116750;28;20350;-41
2022/06/27 12:15:37;;;;;;;7.27;5.70;;;24.80;99.90;;;;;;5116689;28;20196;-41
2022/06/27 12:18:04;;;;;;;7.30;5.00;;;25.00;99.90;;;;;;5116379;28;20194;-41
2022/06/27 12:20:33;;;;;;;6.50;5.67;;;25.10;99.90;;;;;;5116283;28;20190;-40
2022/06/27 12:22:59;;;;;;;5.50;4.60;;;25.20;99.90;;;;;;5116613;28;20173;-42
2022/06/27 12:25:24;;;;;;;6.67;5.60;;;25.30;99.90;;;;;;5116172;28;20189;-41
2022/06/27 12:27:50;;;;;;;6.97;4.93;;;25.40;99.90;;;;;;5100060;28;20175;-41
2022/06/27 12:30:17;;;;;;;7.73;5.27;;;25.50;99.90;;;;;;5117757;28;20205;-42
2022/06/27 12:32:43;;;;;;;6.07;5.30;;;25.60;99.90;;;;;;5098304;28;20174;-38
2022/06/27 12:35:09;;;;;;;6.43;5.10;;;25.80;99.90;;;;;;5116068;28;20224;-40
2022/06/27 12:37:37;;;;;;;7.07;5.27;;;25.90;99.90;;;;;;5116027;28;20535;-41
2022/06/27 12:40:04;;;;;;;6.93;4.93;;;26.00;99.90;;;;;;5116408;28;20194;-39
2022/06/27 12:42:29;;;;;;;8.50;4.97;;;26.10;99.90;;;;;;5116223;28;20170;-41
2022/06/27 12:44:55;;;;;;;7.00;5.90;;;26.10;99.90;;;;;;5115823;28;20679;-43
2022/06/27 12:47:21;;;;;;;8.13;3.97;;;26.10;99.90;;;;;;5115844;28;20767;-41
2022/06/27 12:49:46;;;;;;;4.67;4.20;;;26.20;99.90;;;;;;5115740;28;20210;-41
2022/06/27 12:52:13;;;;;;;5.90;4.47;;;26.20;99.90;;;;;;5115670;28;20178;-41
2022/06/27 12:54:38;;;;;;;5.83;4.40;;;26.30;99.90;;;;;;5097256;28;20181;-41